Time;durP1;ratioP1;P1;durP2;ratioP2;P2;SDS_P1;SDS_P2;PMS_P1;PMS_P2;Temp;Humidity;BMP_temperature;BMP_pressure;BME280_temperature;BME280_humidity;BME280_pressure;Samples;Min_cycle;Max_cycle;Signal;HPM_P1;HPM_P2
2023/03/06 00:02:20;;;;;;;3.20;2.05;;;;;;;;;;5056053;28;20057;-67
2023/03/06 00:04:48;;;;;;;1.80;1.48;;;;;;;;;;5050745;28;20056;-65
2023/03/06 00:07:17;;;;;;;2.47;1.90;;;;;;;;;;5054952;28;20068;-69
2023/03/06 00:09:45;;;;;;;0.95;0.95;;;;;;;;;;5056854;28;20378;-67
2023/03/06 00:12:13;;;;;;;3.97;1.50;;;;;;;;;;5053694;28;20056;-68
2023/03/06 00:14:41;;;;;;;6.55;1.42;;;;;;;;;;5058657;28;20044;-67
2023/03/06 00:17:10;;;;;;;1.27;1.02;;;;;;;;;;5044627;28;20046;-68
2023/03/06 00:19:39;;;;;;;2.45;1.90;;;;;;;;;;5059697;28;20061;-66
2023/03/06 00:22:08;;;;;;;1.83;1.20;;;;;;;;;;5062149;28;20056;-67
2023/03/06 00:24:36;;;;;;;2.30;1.17;;;;;;;;;;5059385;28;20409;-67
2023/03/06 00:27:04;;;;;;;2.05;1.63;;;;;;;;;;5048114;28;20051;-67
2023/03/06 00:29:33;;;;;;;1.77;1.38;;;;;;;;;;5047670;28;20049;-67
2023/03/06 00:32:01;;;;;;;4.13;2.58;;;;;;;;;;5046547;28;20045;-66
2023/03/06 00:34:29;;;;;;;7.43;3.00;;;;;;;;;;5058836;28;20060;-68
2023/03/06 00:36:59;;;;;;;2.13;1.35;;;;;;;;;;5058524;28;20083;-67
2023/03/06 00:39:27;;;;;;;2.10;1.38;;;;;;;;;;5063771;28;20413;-66
2023/03/06 00:41:56;;;;;;;3.67;1.35;;;;;;;;;;5049243;28;20052;-67
2023/03/06 00:44:24;;;;;;;1.95;0.85;;;;;;;;;;5049314;28;20052;-66
2023/03/06 00:46:52;;;;;;;3.67;1.65;;;;;;;;;;5047176;28;20045;-69
2023/03/06 00:49:21;;;;;;;2.03;1.48;;;;;;;;;;5053430;28;20533;-67
2023/03/06 00:51:49;;;;;;;3.35;1.00;;;;;;;;;;5051383;28;20044;-67
2023/03/06 00:54:19;;;;;;;11.73;3.08;;;;;;;;;;5060494;28;20075;-66
2023/03/06 00:56:47;;;;;;;2.78;2.03;;;;;;;;;;5046359;28;20045;-68
2023/03/06 00:59:15;;;;;;;3.38;1.30;;;;;;;;;;5065484;28;20080;-66
2023/03/06 01:01:44;;;;;;;1.38;1.27;;;;;;;;;;5049176;28;20045;-66
2023/03/06 01:04:12;;;;;;;6.07;1.73;;;;;;;;;;5048380;28;20132;-66
2023/03/06 01:06:40;;;;;;;4.82;1.70;;;;;;;;;;5055695;28;20057;-66
2023/03/06 01:09:08;;;;;;;8.77;2.67;;;;;;;;;;5057252;28;20052;-66
2023/03/06 01:11:38;;;;;;;1.95;1.48;;;;;;;;;;5056352;28;20485;-68
2023/03/06 01:14:06;;;;;;;3.72;1.75;;;;;;;;;;5043862;28;20453;-67
2023/03/06 01:16:35;;;;;;;3.88;1.23;;;;;;;;;;5054423;28;20044;-65
2023/03/06 01:19:03;;;;;;;3.80;2.63;;;;;;;;;;5054751;28;20490;-67
2023/03/06 01:21:31;;;;;;;4.72;1.80;;;;;;;;;;5050866;28;20048;-66
2023/03/06 01:23:59;;;;;;;0.85;0.85;;;;;;;;;;5054140;28;20570;-66
2023/03/06 01:26:28;;;;;;;1.52;1.23;;;;;;;;;;5050134;28;20049;-66
2023/03/06 01:28:57;;;;;;;1.92;1.33;;;;;;;;;;5048396;28;20534;-66
2023/03/06 01:31:26;;;;;;;6.85;1.58;;;;;;;;;;5065408;28;20045;-66
2023/03/06 01:33:54;;;;;;;1.25;0.65;;;;;;;;;;5048166;28;20048;-66
2023/03/06 01:36:23;;;;;;;2.42;1.45;;;;;;;;;;5054184;28;20489;-66
2023/03/06 01:38:51;;;;;;;3.40;1.88;;;;;;;;;;5052926;28;20401;-66
2023/03/06 01:41:20;;;;;;;8.82;2.10;;;;;;;;;;5052974;28;20109;-66
2023/03/06 01:43:48;;;;;;;4.00;1.52;;;;;;;;;;5055491;28;20110;-67
2023/03/06 01:46:32;;;;;;;4.93;1.75;;;;;;;;;;5053065;28;20048;-67
2023/03/06 01:49:03;;;;;;;3.28;1.90;;;;;;;;;;5083997;28;20109;-69
2023/03/06 01:51:33;;;;;;;3.45;1.98;;;;;;;;;;5060604;28;20154;-68
2023/03/06 01:54:04;;;;;;;2.10;1.33;;;;;;;;;;5069600;28;20048;-66
2023/03/06 01:56:33;;;;;;;1.88;1.45;;;;;;;;;;5069931;28;20106;-66
2023/03/06 01:59:01;;;;;;;2.55;1.63;;;;;;;;;;5051707;28;20076;-66
2023/03/06 02:01:33;;;;;;;3.08;1.17;;;;;;;;;;5062466;28;20045;-66
2023/03/06 02:04:01;;;;;;;2.03;1.65;;;;;;;;;;5050630;28;20516;-66
2023/03/06 02:06:30;;;;;;;5.22;1.38;;;;;;;;;;5052279;28;20498;-66
2023/03/06 02:08:58;;;;;;;0.73;0.73;;;;;;;;;;5060040;28;20489;-67
2023/03/06 02:11:26;;;;;;;3.22;1.58;;;;;;;;;;5060476;28;20040;-66
2023/03/06 02:13:55;;;;;;;3.85;2.83;;;;;;;;;;5051022;28;20099;-67
2023/03/06 02:16:24;;;;;;;1.50;1.05;;;;;;;;;;5056141;28;20466;-67
2023/03/06 02:18:54;;;;;;;3.80;2.03;;;;;;;;;;5052733;28;20052;-66
2023/03/06 02:21:24;;;;;;;7.53;2.15;;;;;;;;;;5051270;28;20045;-66
2023/03/06 02:24:00;;;;;;;0.93;0.85;;;;;;;;;;5049098;28;20053;-66
2023/03/06 02:26:30;;;;;;;2.45;1.75;;;;;;;;;;5045049;28;20049;-66
2023/03/06 02:28:58;;;;;;;1.30;1.10;;;;;;;;;;5039174;28;20057;-66
2023/03/06 02:31:27;;;;;;;1.52;1.38;;;;;;;;;;5053644;28;20045;-66
2023/03/06 02:34:03;;;;;;;3.10;1.30;;;;;;;;;;5050093;28;20047;-67
2023/03/06 02:36:32;;;;;;;5.47;2.47;;;;;;;;;;5051599;28;20052;-66
2023/03/06 02:39:00;;;;;;;7.15;1.67;;;;;;;;;;5057375;28;20045;-67
2023/03/06 02:41:30;;;;;;;2.25;1.23;;;;;;;;;;5047399;28;20045;-67
2023/03/06 02:43:59;;;;;;;2.53;1.70;;;;;;;;;;5050600;28;20047;-68
2023/03/06 02:46:27;;;;;;;2.80;0.98;;;;;;;;;;5050306;28;20052;-66
2023/03/06 02:48:55;;;;;;;2.35;2.25;;;;;;;;;;5046080;28;20091;-67
2023/03/06 02:51:24;;;;;;;2.25;1.45;;;;;;;;;;5052947;28;20064;-67
2023/03/06 02:53:52;;;;;;;3.90;2.08;;;;;;;;;;5050499;28;20124;-67
2023/03/06 02:56:21;;;;;;;1.30;1.13;;;;;;;;;;5052396;28;20473;-66
2023/03/06 02:58:51;;;;;;;6.22;1.50;;;;;;;;;;5049797;28;20044;-66
2023/03/06 03:01:19;;;;;;;2.42;1.75;;;;;;;;;;5044208;28;20140;-67
2023/03/06 03:03:48;;;;;;;0.63;0.63;;;;;;;;;;5048166;28;20055;-67
2023/03/06 03:06:17;;;;;;;2.70;1.83;;;;;;;;;;5049297;28;20505;-67
2023/03/06 03:08:45;;;;;;;4.28;2.30;;;;;;;;;;5056546;28;20502;-66
2023/03/06 03:11:13;;;;;;;1.63;1.52;;;;;;;;;;5044592;28;20051;-66
2023/03/06 03:13:42;;;;;;;3.40;2.13;;;;;;;;;;5052125;28;20501;-67
2023/03/06 03:16:12;;;;;;;7.15;1.85;;;;;;;;;;5053922;28;20037;-66
2023/03/06 03:18:43;;;;;;;4.13;1.55;;;;;;;;;;5050893;28;20040;-67
2023/03/06 03:21:12;;;;;;;3.63;0.45;;;;;;;;;;5047356;28;20049;-67
2023/03/06 03:23:40;;;;;;;3.28;1.80;;;;;;;;;;5054303;28;20037;-67
2023/03/06 03:26:09;;;;;;;7.78;2.15;;;;;;;;;;5039495;28;20056;-68
2023/03/06 03:28:38;;;;;;;3.83;1.33;;;;;;;;;;5056475;28;20049;-67
2023/03/06 03:31:06;;;;;;;3.63;2.30;;;;;;;;;;5050255;28;20424;-66
2023/03/06 03:33:36;;;;;;;5.47;1.25;;;;;;;;;;5047618;28;20087;-66
2023/03/06 03:36:06;;;;;;;5.28;1.52;;;;;;;;;;5048917;28;20507;-67
2023/03/06 03:38:35;;;;;;;4.13;1.88;;;;;;;;;;5053722;28;20063;-66
2023/03/06 03:41:03;;;;;;;7.00;2.50;;;;;;;;;;5048118;28;20049;-66
2023/03/06 03:43:31;;;;;;;2.53;1.92;;;;;;;;;;5054397;28;20057;-67
2023/03/06 03:46:00;;;;;;;1.52;1.42;;;;;;;;;;5060183;28;20044;-67
2023/03/06 03:48:28;;;;;;;3.70;2.25;;;;;;;;;;5055461;28;20053;-67
2023/03/06 03:51:02;;;;;;;3.33;1.13;;;;;;;;;;5061690;28;20491;-67
2023/03/06 03:53:30;;;;;;;3.58;1.73;;;;;;;;;;5054960;28;20424;-67
2023/03/06 03:55:59;;;;;;;2.72;1.88;;;;;;;;;;5052319;28;20048;-66
2023/03/06 03:58:27;;;;;;;2.45;2.05;;;;;;;;;;5053842;28;20497;-67
2023/03/06 04:00:55;;;;;;;5.95;1.50;;;;;;;;;;5056359;28;20052;-66
2023/03/06 04:03:23;;;;;;;6.65;2.20;;;;;;;;;;5044882;28;20056;-67
2023/03/06 04:05:53;;;;;;;1.23;1.15;;;;;;;;;;5051741;28;20061;-67
2023/03/06 04:08:23;;;;;;;4.22;2.08;;;;;;;;;;5061932;28;20041;-67
2023/03/06 04:10:52;;;;;;;2.25;1.25;;;;;;;;;;5046868;28;20041;-66
2023/03/06 04:13:21;;;;;;;7.97;2.85;;;;;;;;;;5055583;28;20052;-66
2023/03/06 04:15:49;;;;;;;1.85;1.58;;;;;;;;;;5051564;28;20055;-66
2023/03/06 04:18:18;;;;;;;3.70;2.00;;;;;;;;;;5043557;28;20052;-67
2023/03/06 04:20:47;;;;;;;11.43;2.40;;;;;;;;;;5046570;28;20048;-66
2023/03/06 04:23:15;;;;;;;7.85;2.60;;;;;;;;;;5048063;28;20048;-67
2023/03/06 04:25:45;;;;;;;7.03;1.80;;;;;;;;;;5052673;28;20433;-67
2023/03/06 04:28:14;;;;;;;1.85;1.40;;;;;;;;;;5051696;28;20056;-68
2023/03/06 04:30:42;;;;;;;2.70;1.38;;;;;;;;;;5055170;28;20047;-67
2023/03/06 04:33:11;;;;;;;2.05;1.63;;;;;;;;;;5045812;28;20038;-66
2023/03/06 04:35:39;;;;;;;3.28;2.65;;;;;;;;;;5046166;28;20047;-66
2023/03/06 04:38:07;;;;;;;1.35;1.25;;;;;;;;;;5051674;28;20053;-67
2023/03/06 04:40:36;;;;;;;2.40;2.08;;;;;;;;;;5054792;28;20054;-67
2023/03/06 04:43:06;;;;;;;1.13;1.13;;;;;;;;;;5056964;28;20052;-66
2023/03/06 04:45:34;;;;;;;1.75;1.50;;;;;;;;;;5043519;28;20048;-66
2023/03/06 04:48:03;;;;;;;6.90;2.28;;;;;;;;;;5053879;28;20146;-66
2023/03/06 04:50:31;;;;;;;4.15;2.03;;;;;;;;;;5050864;28;20051;-66
2023/03/06 04:53:00;;;;;;;4.00;2.72;;;;;;;;;;5061231;28;20041;-66
2023/03/06 04:55:29;;;;;;;3.88;2.90;;;;;;;;;;5047468;28;20061;-66
2023/03/06 04:57:57;;;;;;;2.10;1.92;;;;;;;;;;5050405;28;20057;-67
2023/03/06 05:00:30;;;;;;;2.83;1.73;;;;;;;;;;5041329;28;20207;-66
2023/03/06 05:02:58;;;;;;;2.65;1.80;;;;;;;;;;5037612;28;20098;-67
2023/03/06 05:05:27;;;;;;;2.80;1.65;;;;;;;;;;5046114;28;20148;-66
2023/03/06 05:07:56;;;;;;;2.60;1.00;;;;;;;;;;5058329;28;20469;-66
2023/03/06 05:10:24;;;;;;;5.22;2.08;;;;;;;;;;5075565;28;20037;-66
2023/03/06 05:12:52;;;;;;;2.55;1.95;;;;;;;;;;5066648;28;20051;-66
2023/03/06 05:15:21;;;;;;;2.80;1.55;;;;;;;;;;5074017;28;20491;-66
2023/03/06 05:17:50;;;;;;;5.05;1.65;;;;;;;;;;5069833;28;20043;-65
2023/03/06 05:20:19;;;;;;;1.52;1.42;;;;;;;;;;5059142;28;20053;-66
2023/03/06 05:22:47;;;;;;;2.15;1.35;;;;;;;;;;5050837;28;20418;-66
2023/03/06 05:25:15;;;;;;;1.70;1.60;;;;;;;;;;5032672;28;20377;-66
2023/03/06 05:27:44;;;;;;;3.65;1.67;;;;;;;;;;5054228;28;20056;-66
2023/03/06 05:30:14;;;;;;;4.78;1.95;;;;;;;;;;5052637;28;20060;-67
2023/03/06 05:32:42;;;;;;;1.75;0.80;;;;;;;;;;5045852;28;20378;-66
2023/03/06 05:35:16;;;;;;;2.97;1.10;;;;;;;;;;5043726;28;20055;-66
2023/03/06 05:37:45;;;;;;;3.35;1.45;;;;;;;;;;5049820;28;20149;-66
2023/03/06 05:40:14;;;;;;;3.58;1.63;;;;;;;;;;5038973;28;20085;-67
2023/03/06 05:42:42;;;;;;;1.95;1.65;;;;;;;;;;5042476;28;20053;-66
2023/03/06 05:45:11;;;;;;;4.32;2.55;;;;;;;;;;5046073;28;20132;-66
2023/03/06 05:47:40;;;;;;;8.48;3.20;;;;;;;;;;5041308;28;20068;-67
2023/03/06 05:50:09;;;;;;;12.88;1.77;;;;;;;;;;5048071;28;20067;-66
2023/03/06 05:52:39;;;;;;;2.00;1.33;;;;;;;;;;5046114;28;20083;-67
2023/03/06 05:55:08;;;;;;;3.08;2.10;;;;;;;;;;5038426;28;20064;-66
2023/03/06 05:57:37;;;;;;;7.45;2.63;;;;;;;;;;5038694;28;20136;-66
2023/03/06 06:00:06;;;;;;;6.45;2.03;;;;;;;;;;5054064;28;20041;-66
2023/03/06 06:02:34;;;;;;;7.53;1.10;;;;;;;;;;5043848;28;20052;-69
2023/03/06 06:05:03;;;;;;;1.40;1.08;;;;;;;;;;5042076;28;20599;-66
2023/03/06 06:07:32;;;;;;;6.95;3.25;;;;;;;;;;5046944;28;20520;-67
2023/03/06 06:10:02;;;;;;;4.15;2.20;;;;;;;;;;5049787;28;20135;-67
2023/03/06 06:12:31;;;;;;;3.75;1.73;;;;;;;;;;5042373;28;20160;-66
2023/03/06 06:14:59;;;;;;;1.60;1.50;;;;;;;;;;5048269;28;20045;-68
2023/03/06 06:17:28;;;;;;;5.32;2.22;;;;;;;;;;5044031;28;20044;-65
2023/03/06 06:19:56;;;;;;;1.27;1.25;;;;;;;;;;5040184;28;20420;-65
2023/03/06 06:22:25;;;;;;;2.67;1.15;;;;;;;;;;5057082;28;20048;-65
2023/03/06 06:24:53;;;;;;;0.90;0.73;;;;;;;;;;5045630;28;20159;-67
2023/03/06 06:27:23;;;;;;;1.33;1.20;;;;;;;;;;5046634;28;20041;-66
2023/03/06 06:29:52;;;;;;;3.25;2.88;;;;;;;;;;5047227;28;20128;-66
2023/03/06 06:32:20;;;;;;;3.92;1.95;;;;;;;;;;5056621;28;20383;-65
2023/03/06 06:34:48;;;;;;;4.32;2.15;;;;;;;;;;5036676;28;20046;-67
2023/03/06 06:37:17;;;;;;;3.90;2.15;;;;;;;;;;5036298;28;20049;-67
2023/03/06 06:39:45;;;;;;;2.15;0.80;;;;;;;;;;5047921;28;20482;-64
2023/03/06 06:42:13;;;;;;;1.95;1.48;;;;;;;;;;5047390;28;20148;-65
2023/03/06 06:45:01;;;;;;;1.67;1.58;;;;;;;;;;5058544;28;20048;-64
2023/03/06 06:47:30;;;;;;;4.82;2.13;;;;;;;;;;5048328;28;20044;-67
2023/03/06 06:49:58;;;;;;;1.55;1.45;;;;;;;;;;5050616;28;20041;-65
2023/03/06 06:52:27;;;;;;;1.40;1.30;;;;;;;;;;5050499;28;20045;-64
2023/03/06 06:54:55;;;;;;;10.48;2.05;;;;;;;;;;5060056;28;20127;-64
2023/03/06 06:57:24;;;;;;;3.60;1.88;;;;;;;;;;5050002;28;20132;-65
2023/03/06 06:59:52;;;;;;;3.42;2.45;;;;;;;;;;5048990;28;20052;-64
2023/03/06 07:02:23;;;;;;;1.83;1.13;;;;;;;;;;5050220;28;20099;-64
2023/03/06 07:04:51;;;;;;;4.38;1.33;;;;;;;;;;5050413;28;20041;-64
2023/03/06 07:07:32;;;;;;;4.20;2.15;;;;;;;;;;5050496;28;20099;-64
2023/03/06 07:10:01;;;;;;;9.77;2.70;;;;;;;;;;5050760;28;20414;-65
2023/03/06 07:12:31;;;;;;;4.40;2.20;;;;;;;;;;5048626;28;20490;-64
2023/03/06 07:15:00;;;;;;;2.63;1.67;;;;;;;;;;5051164;28;20415;-64
2023/03/06 07:17:30;;;;;;;3.63;0.98;;;;;;;;;;5049352;28;20048;-64
2023/03/06 07:19:59;;;;;;;1.60;0.93;;;;;;;;;;5047698;28;20037;-64
2023/03/06 07:22:28;;;;;;;3.92;2.30;;;;;;;;;;5050022;28;20079;-66
2023/03/06 07:25:09;;;;;;;3.53;1.52;;;;;;;;;;5036795;28;20472;-64
2023/03/06 07:27:37;;;;;;;4.40;1.73;;;;;;;;;;5059495;28;20082;-65
2023/03/06 07:30:06;;;;;;;3.55;2.28;;;;;;;;;;5076158;28;20067;-65
2023/03/06 07:32:36;;;;;;;4.00;2.53;;;;;;;;;;5071856;28;20054;-66
2023/03/06 07:35:05;;;;;;;4.47;1.45;;;;;;;;;;5063738;28;20046;-66
2023/03/06 07:37:47;;;;;;;4.63;1.85;;;;;;;;;;5055981;28;20041;-65
2023/03/06 07:40:16;;;;;;;3.97;2.25;;;;;;;;;;5045091;28;20136;-63
2023/03/06 07:42:44;;;;;;;2.08;1.33;;;;;;;;;;5047073;28;20404;-63
2023/03/06 07:45:13;;;;;;;2.38;1.25;;;;;;;;;;5041145;28;20051;-64
2023/03/06 07:47:43;;;;;;;5.78;1.52;;;;;;;;;;5039136;28;20041;-65
2023/03/06 07:50:12;;;;;;;4.95;2.88;;;;;;;;;;5036123;28;20046;-66
2023/03/06 07:52:41;;;;;;;5.78;2.67;;;;;;;;;;5040754;28;20045;-64
2023/03/06 07:55:10;;;;;;;4.75;1.63;;;;;;;;;;5044597;28;20130;-65
2023/03/06 07:57:39;;;;;;;2.55;1.67;;;;;;;;;;5052479;28;20053;-66
2023/03/06 08:00:09;;;;;;;5.32;2.67;;;;;;;;;;5043833;28;20045;-66
2023/03/06 08:02:37;;;;;;;8.80;2.83;;;;;;;;;;5050190;28;20064;-69
2023/03/06 08:05:08;;;;;;;1.92;1.02;;;;;;;;;;5050561;28;20052;-65
2023/03/06 08:07:37;;;;;;;4.82;2.30;;;;;;;;;;5062651;28;20393;-64
2023/03/06 08:10:06;;;;;;;5.57;2.63;;;;;;;;;;5070100;28;20492;-65
2023/03/06 08:12:35;;;;;;;2.67;0.80;;;;;;;;;;5067683;28;20095;-66
2023/03/06 08:15:03;;;;;;;3.75;1.90;;;;;;;;;;5067577;28;20067;-66
2023/03/06 08:17:32;;;;;;;10.30;3.17;;;;;;;;;;5064355;28;20098;-64
2023/03/06 08:20:00;;;;;;;6.97;3.00;;;;;;;;;;5069198;28;20047;-65
2023/03/06 08:22:30;;;;;;;5.70;1.48;;;;;;;;;;5061111;28;20056;-64
2023/03/06 08:24:59;;;;;;;7.75;3.42;;;;;;;;;;5063911;28;20045;-66
2023/03/06 08:27:27;;;;;;;2.08;1.55;;;;;;;;;;5055388;28;20045;-66
2023/03/06 08:29:56;;;;;;;8.40;2.47;;;;;;;;;;5052907;28;20053;-66
2023/03/06 08:32:24;;;;;;;7.10;2.33;;;;;;;;;;5037305;28;20049;-66
2023/03/06 08:34:53;;;;;;;4.53;1.60;;;;;;;;;;5047176;28;20045;-66
2023/03/06 08:37:21;;;;;;;6.45;3.35;;;;;;;;;;5051605;28;20075;-66
2023/03/06 08:39:51;;;;;;;4.68;2.60;;;;;;;;;;5039668;28;20077;-64
2023/03/06 08:42:20;;;;;;;7.35;2.45;;;;;;;;;;5039738;28;20041;-65
2023/03/06 08:44:49;;;;;;;6.32;2.38;;;;;;;;;;5047205;28;20045;-64
2023/03/06 08:47:18;;;;;;;8.65;1.92;;;;;;;;;;5048138;28;20135;-64
2023/03/06 08:49:47;;;;;;;1.52;1.35;;;;;;;;;;5044648;28;20061;-67
2023/03/06 08:52:15;;;;;;;3.80;1.77;;;;;;;;;;5047299;28;20045;-66
2023/03/06 08:54:44;;;;;;;12.63;3.65;;;;;;;;;;5052759;28;20057;-66
2023/03/06 08:57:14;;;;;;;3.20;2.00;;;;;;;;;;5056053;28;20047;-66
2023/03/06 08:59:43;;;;;;;9.05;2.40;;;;;;;;;;5051105;28;20049;-66
2023/03/06 09:02:14;;;;;;;5.68;1.60;;;;;;;;;;5051150;28;20136;-66
2023/03/06 09:04:43;;;;;;;4.28;2.50;;;;;;;;;;5052882;28;20067;-67
2023/03/06 09:07:12;;;;;;;6.07;2.17;;;;;;;;;;5048456;28;20041;-66
2023/03/06 09:09:41;;;;;;;5.38;1.58;;;;;;;;;;5050092;28;20059;-67
2023/03/06 09:12:10;;;;;;;2.45;1.42;;;;;;;;;;5050398;28;20485;-66
2023/03/06 09:14:40;;;;;;;3.75;2.75;;;;;;;;;;5044886;28;20102;-67
2023/03/06 09:17:09;;;;;;;4.05;2.08;;;;;;;;;;5045916;28;20103;-65
2023/03/06 09:19:38;;;;;;;9.55;2.58;;;;;;;;;;5052199;28;20060;-65
2023/03/06 09:22:07;;;;;;;5.55;4.07;;;;;;;;;;5052431;28;20076;-65
2023/03/06 09:24:38;;;;;;;3.88;2.00;;;;;;;;;;5050043;28;20060;-65
2023/03/06 09:27:07;;;;;;;7.80;2.63;;;;;;;;;;5044932;28;20083;-65
2023/03/06 09:29:36;;;;;;;10.43;2.80;;;;;;;;;;5045967;28;20053;-65
2023/03/06 09:32:06;;;;;;;7.00;2.72;;;;;;;;;;5050409;28;20047;-65
2023/03/06 09:34:35;;;;;;;8.23;3.65;;;;;;;;;;5047236;28;20405;-64
2023/03/06 09:37:04;;;;;;;8.75;3.97;;;;;;;;;;5049070;28;20468;-64
2023/03/06 09:39:32;;;;;;;5.93;2.35;;;;;;;;;;5055324;28;20060;-65
2023/03/06 09:42:01;;;;;;;10.23;2.70;;;;;;;;;;5047335;28;20048;-65
2023/03/06 09:44:31;;;;;;;4.70;2.85;;;;;;;;;;5052384;28;20045;-65
2023/03/06 09:47:04;;;;;;;3.90;2.60;;;;;;;;;;5055525;28;20068;-64
2023/03/06 09:49:43;;;;;;;4.55;2.28;;;;;;;;;;5082800;28;20047;-65
2023/03/06 09:52:21;;;;;;;17.80;3.55;;;;;;;;;;5074700;28;20047;-65
2023/03/06 09:54:53;;;;;;;3.05;2.55;;;;;;;;;;5064838;28;20044;-65
2023/03/06 09:57:23;;;;;;;9.43;2.67;;;;;;;;;;5065809;28;20037;-65
2023/03/06 09:59:54;;;;;;;6.72;2.53;;;;;;;;;;5054611;28;20040;-64
2023/03/06 10:02:27;;;;;;;8.23;2.30;;;;;;;;;;5045820;28;20037;-64
2023/03/06 10:05:00;;;;;;;4.13;2.63;;;;;;;;;;5052280;28;20069;-65
2023/03/06 10:07:32;;;;;;;2.85;1.70;;;;;;;;;;5048578;28;20045;-65
2023/03/06 10:10:03;;;;;;;7.70;3.55;;;;;;;;;;5052035;28;20130;-65
2023/03/06 10:12:34;;;;;;;2.92;2.20;;;;;;;;;;5051807;28;20088;-65
2023/03/06 10:15:07;;;;;;;6.47;2.33;;;;;;;;;;5055244;28;20073;-65
2023/03/06 10:17:37;;;;;;;3.05;1.58;;;;;;;;;;5054643;28;20537;-64
2023/03/06 10:20:16;;;;;;;5.72;2.00;;;;;;;;;;5049339;28;20403;-65
2023/03/06 10:22:48;;;;;;;6.00;2.35;;;;;;;;;;5044809;28;20045;-65
2023/03/06 10:25:32;;;;;;;13.18;3.33;;;;;;;;;;5054797;28;20049;-65
2023/03/06 10:28:04;;;;;;;4.85;2.05;;;;;;;;;;5049959;28;20063;-65
2023/03/06 10:30:38;;;;;;;7.30;2.25;;;;;;;;;;5052179;28;20041;-65
2023/03/06 10:33:09;;;;;;;9.35;2.75;;;;;;;;;;5041642;28;20126;-64
2023/03/06 10:35:46;;;;;;;8.13;1.67;;;;;;;;;;5049596;28;20076;-65
2023/03/06 10:38:19;;;;;;;7.15;2.58;;;;;;;;;;5052952;28;20428;-65
2023/03/06 10:40:52;;;;;;;10.18;3.38;;;;;;;;;;5049343;28;20135;-65
2023/03/06 10:43:22;;;;;;;4.07;2.45;;;;;;;;;;5042633;28;20448;-65
2023/03/06 10:45:53;;;;;;;5.22;2.22;;;;;;;;;;5052396;28;20049;-65
2023/03/06 10:48:22;;;;;;;5.68;2.75;;;;;;;;;;5051280;28;20041;-65
2023/03/06 10:50:53;;;;;;;8.77;3.45;;;;;;;;;;5049823;28;20044;-65
2023/03/06 10:53:24;;;;;;;3.63;2.45;;;;;;;;;;5048193;28;20531;-65
2023/03/06 10:55:55;;;;;;;8.73;2.33;;;;;;;;;;5046920;28;20339;-65
2023/03/06 10:58:24;;;;;;;5.90;1.98;;;;;;;;;;5048801;28;20069;-65
2023/03/06 11:01:07;;;;;;;8.23;3.38;;;;;;;;;;5057452;28;20462;-66
2023/03/06 11:03:36;;;;;;;8.55;3.17;;;;;;;;;;5040093;28;20059;-65
2023/03/06 11:06:09;;;;;;;6.03;2.50;;;;;;;;;;5047338;28;20045;-64
2023/03/06 11:08:41;;;;;;;2.22;1.38;;;;;;;;;;5047733;28;20516;-65
2023/03/06 11:11:11;;;;;;;6.75;2.85;;;;;;;;;;5047118;28;20057;-66
2023/03/06 11:13:41;;;;;;;9.88;2.28;;;;;;;;;;5043495;28;20045;-65
2023/03/06 11:16:18;;;;;;;6.03;3.58;;;;;;;;;;5047038;28;20040;-66
2023/03/06 11:18:58;;;;;;;4.45;2.45;;;;;;;;;;5079036;28;20417;-66
2023/03/06 11:21:32;;;;;;;14.90;3.00;;;;;;;;;;5061361;28;20040;-64
2023/03/06 11:24:03;;;;;;;4.50;1.98;;;;;;;;;;5064332;28;20080;-65
2023/03/06 11:26:49;;;;;;;3.00;2.20;;;;;;;;;;5068960;28;20079;-65
2023/03/06 11:29:23;;;;;;;6.10;3.05;;;;;;;;;;5044289;28;20053;-65
2023/03/06 11:31:54;;;;;;;9.40;2.13;;;;;;;;;;5050765;28;20131;-63
2023/03/06 11:34:26;;;;;;;4.22;1.63;;;;;;;;;;5039531;28;20040;-62
2023/03/06 11:36:59;;;;;;;11.32;1.85;;;;;;;;;;5045329;28;20045;-65
2023/03/06 11:39:30;;;;;;;5.18;2.83;;;;;;;;;;5057676;28;20080;-64
2023/03/06 11:42:02;;;;;;;7.63;3.03;;;;;;;;;;5048563;28;20419;-64
2023/03/06 11:44:35;;;;;;;6.38;2.22;;;;;;;;;;5048297;28;20048;-64
2023/03/06 11:47:06;;;;;;;2.65;1.42;;;;;;;;;;5044971;28;20045;-64
2023/03/06 11:49:40;;;;;;;4.20;1.92;;;;;;;;;;5040299;28;20060;-63
2023/03/06 11:52:15;;;;;;;4.38;3.25;;;;;;;;;;5060860;28;20059;-65
2023/03/06 11:54:44;;;;;;;8.32;3.72;;;;;;;;;;5044145;28;20052;-64
2023/03/06 11:57:16;;;;;;;11.80;2.08;;;;;;;;;;5042613;28;20136;-63
2023/03/06 11:59:59;;;;;;;7.45;2.58;;;;;;;;;;5047495;28;20460;-65
2023/03/06 12:02:34;;;;;;;7.72;1.80;;;;;;;;;;5044012;28;20441;-64
2023/03/06 12:05:12;;;;;;;2.70;1.98;;;;;;;;;;5048221;28;20143;-63
2023/03/06 12:07:45;;;;;;;1.88;1.33;;;;;;;;;;5046089;28;20057;-63
2023/03/06 12:10:16;;;;;;;5.05;2.22;;;;;;;;;;5042147;28;20497;-63
2023/03/06 12:12:56;;;;;;;4.90;1.95;;;;;;;;;;5052121;28;20512;-63
2023/03/06 12:15:30;;;;;;;3.42;2.35;;;;;;;;;;5048715;28;20045;-64
2023/03/06 12:18:07;;;;;;;7.60;2.65;;;;;;;;;;5045883;28;20073;-65
2023/03/06 12:20:40;;;;;;;10.40;3.88;;;;;;;;;;5048695;28;20126;-64
2023/03/06 12:23:19;;;;;;;6.72;2.65;;;;;;;;;;5043011;28;20045;-64
2023/03/06 12:25:52;;;;;;;7.43;2.78;;;;;;;;;;5041638;28;20447;-64
2023/03/06 12:28:40;;;;;;;5.43;2.30;;;;;;;;;;5057588;28;22244;-64
2023/03/06 12:31:32;;;;;;;3.85;2.70;;;;;;;;;;5041053;28;20048;-62
2023/03/06 12:34:14;;;;;;;2.80;1.63;;;;;;;;;;4985123;28;20050;-63
2023/03/06 12:36:47;;;;;;;6.68;2.85;;;;;;;;;;5043579;28;20558;-64
2023/03/06 12:39:22;;;;;;;5.13;1.88;;;;;;;;;;5048701;28;20044;-63
2023/03/06 12:41:56;;;;;;;3.95;2.08;;;;;;;;;;5054474;28;20128;-63
2023/03/06 12:44:33;;;;;;;4.60;2.40;;;;;;;;;;5055901;28;20135;-64
2023/03/06 12:47:02;;;;;;;1.75;1.65;;;;;;;;;;5043146;28;20057;-63
2023/03/06 12:49:37;;;;;;;5.03;2.53;;;;;;;;;;5049130;28;20535;-63
2023/03/06 12:52:07;;;;;;;2.40;1.10;;;;;;;;;;5056441;28;20086;-64
2023/03/06 12:54:39;;;;;;;8.05;3.17;;;;;;;;;;5054153;28;20044;-64
2023/03/06 12:57:09;;;;;;;2.88;1.73;;;;;;;;;;5045059;28;20044;-64
2023/03/06 12:59:38;;;;;;;7.20;1.77;;;;;;;;;;5051800;28;20113;-64
2023/03/06 13:02:25;;;;;;;5.00;1.98;;;;;;;;;;5049875;28;20141;-64
2023/03/06 13:05:00;;;;;;;7.78;2.95;;;;;;;;;;5049149;28;20053;-63
2023/03/06 13:07:46;;;;;;;4.65;1.75;;;;;;;;;;5059191;28;20066;-65
2023/03/06 13:10:14;;;;;;;;;;;;;;;;;;5048810;28;20045;-65
2023/03/06 13:12:50;;;;;;;4.70;1.75;;;;;;;;;;5050104;28;19931;-65
2023/03/06 13:15:33;;;;;;;3.60;2.92;;;;;;;;;;5051875;28;20485;-64
2023/03/06 13:18:02;;;;;;;5.60;2.47;;;;;;;;;;5045468;28;20098;-65
2023/03/06 13:20:34;;;;;;;3.25;2.90;;;;;;;;;;5054821;28;20135;-63
2023/03/06 13:23:21;;;;;;;6.57;2.90;;;;;;;;;;5055379;28;20052;-63
2023/03/06 13:25:50;;;;;;;8.50;2.30;;;;;;;;;;5048409;28;20056;-64
2023/03/06 13:28:39;;;;;;;7.78;2.13;;;;;;;;;;5055732;28;20413;-63
2023/03/06 13:31:08;;;;;;;7.28;2.05;;;;;;;;;;5046289;28;20048;-63
2023/03/06 13:33:54;;;;;;;11.35;2.85;;;;;;;;;;5046475;28;20162;-63
2023/03/06 13:36:24;;;;;;;7.13;2.15;;;;;;;;;;5040601;28;20124;-64
2023/03/06 13:38:57;;;;;;;3.08;1.98;;;;;;;;;;5045435;28;20049;-64
2023/03/06 13:41:41;;;;;;;5.43;2.55;;;;;;;;;;5048390;28;20094;-63
2023/03/06 13:44:31;;;;;;;3.55;2.15;;;;;;;;;;5046846;28;20505;-63
2023/03/06 13:47:02;;;;;;;4.60;1.70;;;;;;;;;;5050563;28;20056;-64
2023/03/06 13:49:30;;;;;;;1.50;1.13;;;;;;;;;;5067832;28;20118;-63
2023/03/06 13:52:06;;;;;;;8.02;4.25;;;;;;;;;;5069058;28;20183;-63
2023/03/06 13:54:43;;;;;;;9.63;2.00;;;;;;;;;;5067183;28;20041;-63
2023/03/06 13:57:33;;;;;;;22.27;3.63;;;;;;;;;;5050195;28;20057;-64
2023/03/06 14:00:28;;;;;;;8.68;2.85;;;;;;;;;;5028339;28;20045;-63
2023/03/06 14:03:12;;;;;;;2.00;0.93;;;;;;;;;;5048685;28;20124;-63
2023/03/06 14:05:45;;;;;;;5.80;2.42;;;;;;;;;;5051415;28;20507;-63
2023/03/06 14:08:15;;;;;;;3.83;2.33;;;;;;;;;;5044628;28;20053;-64
2023/03/06 14:10:45;;;;;;;7.07;2.40;;;;;;;;;;5051552;28;20056;-63
2023/03/06 14:13:18;;;;;;;6.90;3.05;;;;;;;;;;5045883;28;20055;-63
2023/03/06 14:15:46;;;;;;;5.07;2.22;;;;;;;;;;5042280;28;20125;-63
2023/03/06 14:18:17;;;;;;;5.80;2.50;;;;;;;;;;5059582;28;20041;-63
2023/03/06 14:20:48;;;;;;;9.13;3.85;;;;;;;;;;5039298;28;20522;-62
2023/03/06 14:23:23;;;;;;;5.43;2.65;;;;;;;;;;5045299;28;20487;-63
2023/03/06 14:25:53;;;;;;;3.78;1.20;;;;;;;;;;5040256;28;20079;-63
2023/03/06 14:28:22;;;;;;;5.18;2.22;;;;;;;;;;5048009;28;20047;-63
2023/03/06 14:30:51;;;;;;;5.43;2.70;;;;;;;;;;5039587;28;20482;-62
2023/03/06 14:33:27;;;;;;;11.95;1.80;;;;;;;;;;5052732;28;20076;-63
2023/03/06 14:35:59;;;;;;;3.50;1.52;;;;;;;;;;5058617;28;20067;-62
2023/03/06 14:38:28;;;;;;;5.25;2.08;;;;;;;;;;5056359;28;20045;-63
2023/03/06 14:40:57;;;;;;;4.82;1.88;;;;;;;;;;5047359;28;20047;-63
2023/03/06 14:43:27;;;;;;;27.75;2.75;;;;;;;;;;5048765;28;20116;-63
2023/03/06 14:45:57;;;;;;;6.65;2.00;;;;;;;;;;5047948;28;20071;-63
2023/03/06 14:48:26;;;;;;;6.88;1.63;;;;;;;;;;5044721;28;20057;-64
2023/03/06 14:50:56;;;;;;;4.05;2.30;;;;;;;;;;5054101;28;20119;-64
2023/03/06 14:53:28;;;;;;;2.72;1.38;;;;;;;;;;5056057;28;20508;-63
2023/03/06 14:55:59;;;;;;;9.23;2.65;;;;;;;;;;5047271;28;20068;-63
2023/03/06 14:58:30;;;;;;;2.58;1.42;;;;;;;;;;5072588;28;20158;-64
2023/03/06 15:01:00;;;;;;;8.60;2.50;;;;;;;;;;5069815;28;20055;-63
2023/03/06 15:03:32;;;;;;;6.35;2.00;;;;;;;;;;5062198;28;20044;-64
2023/03/06 15:06:01;;;;;;;8.82;2.55;;;;;;;;;;5065047;28;20469;-65